Station Historical Data
Daily Summary for August 25, 2017 Units:  English    Metric   Both
« Previous Day
Next Day »
Daily Weekly Monthly Yearly Custom
  High: Low: Average:
Temperature: 84.8 °F 66.0 °F 75.2 °F
Dew Point: 70.2 °F 60.5 °F 65.9 °F
Humidity: 88% 57% 74%
Wind Speed: 2.0mph 0.0mph 0.1mph
Wind Gust: 5.0mph - -
Wind- - WNW
Pressure: 30.10 in 29.96 in -
Precipitation: 0.00 in    
Historical Graphs
 
 
Tabular Data for August 25, 2017
Time Temperature Dew Point Pressure Wind Wind Speed Wind Gust Humidity Rainfall Rate (Hourly) solar Conditions
00:00 70.0 °F 61.3 °F 29.97 in Calm     74% 0.00 in WeatherDisplay:10.37 W/m2 CLR
00:10 69.7 °F 61.0 °F 29.96 in Calm     74% 0.00 in WeatherDisplay:10.37 W/m2 CLR
00:15 69.5 °F 60.9 °F 29.96 in Calm     74% 0.00 in WeatherDisplay:10.37 W/m2 CLR
00:20 69.4 °F 61.1 °F 29.96 in Calm     75% 0.00 in WeatherDisplay:10.37 W/m2 CLR
00:25 69.3 °F 61.0 °F 29.96 in Calm     75% 0.00 in WeatherDisplay:10.37 W/m2 CLR
00:30 69.1 °F 60.5 °F 29.96 in Calm     74% 0.00 in WeatherDisplay:10.37 W/m2 CLR
00:40 69.0 °F 61.1 °F 29.97 in Calm     76% 0.00 in WeatherDisplay:10.37 W/m2 CLR
00:45 68.8 °F 60.9 °F 29.97 in Calm     76% 0.00 in WeatherDisplay:10.37 W/m2 CLR
00:50 68.7 °F 60.8 °F 29.97 in Calm     76% 0.00 in WeatherDisplay:10.37 W/m2 CLR
00:55 68.6 °F 61.1 °F 29.97 in Calm     77% 0.00 in WeatherDisplay:10.37 W/m2 CLR
01:00 68.5 °F 61.0 °F 29.97 in Calm     77% 0.00 in WeatherDisplay:10.37 W/m2 CLR
01:10 68.3 °F 60.8 °F 29.97 in Calm     77% 0.00 in WeatherDisplay:10.37 W/m2 CLR
01:15 68.2 °F 61.1 °F 29.97 in Calm     78% 0.00 in WeatherDisplay:10.37 W/m2 CLR
01:20 68.1 °F 61.0 °F 29.97 in Calm     78% 0.00 in WeatherDisplay:10.37 W/m2 CLR
01:25 68.0 °F 60.9 °F 29.97 in Calm     78% 0.00 in WeatherDisplay:10.37 W/m2 CLR
01:30 67.9 °F 60.8 °F 29.97 in Calm     78% 0.00 in WeatherDisplay:10.37 W/m2 CLR
01:35 67.8 °F 60.7 °F 29.96 in Calm     78% 0.00 in WeatherDisplay:10.37 W/m2 CLR
01:40 67.7 °F 61.0 °F 29.96 in Calm     79% 0.00 in WeatherDisplay:10.37 W/m2 CLR
01:45 67.7 °F 61.0 °F 29.96 in Calm     79% 0.00 in WeatherDisplay:10.37 W/m2 CLR
01:50 67.5 °F 60.8 °F 29.96 in Calm     79% 0.00 in WeatherDisplay:10.37 W/m2 CLR
01:55 67.5 °F 61.1 °F 29.96 in Calm     80% 0.00 in WeatherDisplay:10.37 W/m2 CLR
02:00 67.4 °F 61.0 °F 29.96 in Calm     80% 0.00 in WeatherDisplay:10.37 W/m2 CLR
02:10 67.1 °F 60.8 °F 29.96 in Calm     80% 0.00 in WeatherDisplay:10.37 W/m2 CLR
02:15 67.1 °F 61.1 °F 29.96 in Calm     81% 0.00 in WeatherDisplay:10.37 W/m2 CLR
02:20 67.0 °F 61.0 °F 29.97 in Calm     81% 0.00 in WeatherDisplay:10.37 W/m2 CLR
02:25 66.9 °F 60.9 °F 29.97 in Calm     81% 0.00 in WeatherDisplay:10.37 W/m2 CLR
02:30 66.9 °F 61.2 °F 29.97 in Calm     82% 0.00 in WeatherDisplay:10.37 W/m2 CLR
02:40 66.8 °F 61.1 °F 29.97 in Calm     82% 0.00 in WeatherDisplay:10.37 W/m2 CLR
02:45 66.8 °F 61.1 °F 29.97 in Calm     82% 0.00 in WeatherDisplay:10.37 W/m2 CLR
02:50 66.8 °F 60.8 °F 29.97 in Calm     81% 0.00 in WeatherDisplay:10.37 W/m2 CLR
02:55 66.7 °F 61.0 °F 29.97 in Calm     82% 0.00 in WeatherDisplay:10.37 W/m2 CLR
03:00 66.7 °F 61.0 °F 29.97 in Calm     82% 0.00 in WeatherDisplay:10.37 W/m2 CLR
03:10 66.7 °F 61.0 °F 29.98 in Calm     82% 0.00 in WeatherDisplay:10.37 W/m2 CLR
03:15 66.6 °F 60.9 °F 29.98 in Calm     82% 0.00 in WeatherDisplay:10.37 W/m2 CLR
03:20 66.6 °F 60.9 °F 29.98 in Calm     82% 0.00 in WeatherDisplay:10.37 W/m2 CLR
03:25 66.6 °F 61.3 °F 29.98 in Calm     83% 0.00 in WeatherDisplay:10.37 W/m2 CLR
03:30 66.5 °F 61.2 °F 29.98 in Calm     83% 0.00 in WeatherDisplay:10.37 W/m2 CLR
03:40 66.3 °F 61.0 °F 29.98 in Calm     83% 0.00 in WeatherDisplay:10.37 W/m2 CLR
03:45 66.3 °F 61.0 °F 29.98 in Calm     83% 0.00 in WeatherDisplay:10.37 W/m2 CLR
03:50 66.2 °F 61.2 °F 29.98 in Calm     84% 0.00 in WeatherDisplay:10.37 W/m2 CLR
03:55 66.1 °F 61.1 °F 29.98 in Calm     84% 0.00 in WeatherDisplay:10.37 W/m2 CLR
04:00 66.0 °F 61.0 °F 29.98 in Calm     84% 0.00 in WeatherDisplay:10.37 W/m2 CLR
04:10 66.1 °F 61.5 °F 29.98 in Calm     85% 0.00 in WeatherDisplay:10.37 W/m2 CLR
04:15 66.1 °F 61.5 °F 29.98 in Calm     85% 0.00 in WeatherDisplay:10.37 W/m2 CLR
04:20 66.1 °F 61.5 °F 29.98 in Calm     85% 0.00 in WeatherDisplay:10.37 W/m2 CLR
04:25 66.2 °F 61.9 °F 29.98 in Calm     86% 0.00 in WeatherDisplay:10.37 W/m2 CLR
04:30 66.2 °F 61.9 °F 29.98 in Calm     86% 0.00 in WeatherDisplay:10.37 W/m2 CLR
04:40 66.3 °F 62.0 °F 29.98 in Calm     86% 0.00 in WeatherDisplay:10.37 W/m2 CLR
04:45 66.4 °F 62.0 °F 29.99 in Calm     86% 0.00 in WeatherDisplay:10.37 W/m2 CLR
04:50 66.4 °F 62.1 °F 29.99 in Calm     86% 0.00 in WeatherDisplay:10.37 W/m2 CLR
04:55 66.4 °F 62.1 °F 29.99 in Calm     86% 0.00 in WeatherDisplay:10.37 W/m2 CLR
05:00 66.4 °F 62.1 °F 29.99 in Calm     86% 0.00 in WeatherDisplay:10.37 W/m2 CLR
05:05 66.4 °F 62.5 °F 29.98 in Calm     87% 0.00 in WeatherDisplay:10.37 W/m2 CLR
05:10 66.7 °F 63.0 °F 29.99 in Calm     88% 0.00 in WeatherDisplay:10.37 W/m2 CLR
05:15 66.9 °F 62.9 °F 29.99 in Calm     87% 0.00 in WeatherDisplay:10.37 W/m2 CLR
05:20 67.0 °F 63.0 °F 29.99 in Calm     87% 0.00 in WeatherDisplay:10.37 W/m2 CLR
05:25 67.1 °F 63.1 °F 29.99 in Calm     87% 0.00 in WeatherDisplay:10.37 W/m2 CLR
05:30 67.2 °F 63.2 °F 29.99 in Calm     87% 0.00 in WeatherDisplay:10.37 W/m2 CLR
05:35 67.3 °F 63.6 °F 29.99 in Calm     88% 0.00 in WeatherDisplay:10.37 W/m2 CLR
05:40 67.3 °F 63.6 °F 29.99 in Calm     88% 0.00 in WeatherDisplay:10.37 W/m2 CLR
05:45 67.4 °F 63.7 °F 29.99 in Calm     88% 0.00 in WeatherDisplay:10.37 W/m2 CLR
05:50 67.3 °F 63.3 °F 29.99 in Calm     87% 0.00 in WeatherDisplay:10.37 W/m2 CLR
05:55 67.3 °F 63.3 °F 30.00 in Calm     87% 0.00 in WeatherDisplay:10.37 W/m2 CLR
06:00 67.2 °F 63.2 °F 30.00 in Calm     87% 0.00 in WeatherDisplay:10.37 W/m2 CLR
06:05 67.1 °F 63.1 °F 30.00 in Calm     87% 0.00 in WeatherDisplay:10.37 W/m2 CLR
06:10 67.1 °F 63.5 °F 30.00 in Calm     88% 0.00 in WeatherDisplay:10.37 W/m2 CLR
06:15 67.2 °F 63.5 °F 30.00 in Calm     88% 0.00 in WeatherDisplay:10.37 W/m2 CLR
06:20 67.3 °F 63.6 °F 30.00 in Calm     88% 0.00 in WeatherDisplay:10.37 W/m2 CLR
06:25 67.3 °F 63.6 °F 30.00 in Calm     88% 0.00 in WeatherDisplay:10.37 W/m2 CLR
06:30 67.4 °F 63.7 °F 30.01 in Calm     88% 0.00 in WeatherDisplay:10.37 W/m2 CLR
06:35 67.4 °F 63.8 °F 30.01 in Calm     88% 0.00 in WeatherDisplay:10.37 W/m2 CLR
06:40 67.4 °F 63.7 °F 30.01 in Calm     88% 0.00 in WeatherDisplay:10.37 W/m2 CLR
06:45 67.4 °F 63.7 °F 30.01 in Calm     88% 0.00 in WeatherDisplay:10.37 W/m2 CLR
06:50 67.4 °F 63.7 °F 30.01 in Calm     88% 0.00 in WeatherDisplay:10.37 W/m2 CLR
06:55 67.4 °F 63.7 °F 30.01 in Calm     88% 0.00 in WeatherDisplay:10.37 W/m2 CLR
07:00 67.4 °F 63.8 °F 30.02 in Calm     88% 0.00 in WeatherDisplay:10.37 W/m2 CLR
07:05 67.5 °F 63.8 °F 30.02 in Calm     88% 0.00 in WeatherDisplay:10.37 W/m2 CLR
07:10 67.5 °F 63.8 °F 30.02 in Calm     88% 0.00 in WeatherDisplay:10.37 W/m2 CLR
07:15 67.4 °F 63.7 °F 30.01 in Calm     88% 0.00 in WeatherDisplay:10.37 W/m2 CLR
07:20 67.4 °F 63.7 °F 30.02 in Calm     88% 0.00 in WeatherDisplay:10.37 W/m2 BKN
07:25 67.5 °F 63.8 °F 30.02 in Calm     88% 0.00 in WeatherDisplay:10.37 W/m2 BKN
07:30 67.5 °F 63.8 °F 30.02 in Calm     88% 0.00 in WeatherDisplay:10.37 W/m2 BKN
07:35 67.6 °F 63.9 °F 30.02 in Calm     88% 0.00 in WeatherDisplay:10.37 W/m2 BKN
07:40 67.7 °F 64.0 °F 30.02 in Calm     88% 0.00 in WeatherDisplay:10.37 W/m2 BKN
07:45 67.7 °F 64.0 °F 30.02 in Calm     88% 0.00 in WeatherDisplay:10.37 W/m2 BKN
07:50 67.9 °F 64.2 °F 30.02 in Calm     88% 0.00 in WeatherDisplay:10.37 W/m2 BKN
07:55 68.1 °F 64.4 °F 30.02 in Calm     88% 0.00 in WeatherDisplay:10.37 W/m2 BKN
08:00 68.3 °F 64.6 °F 30.02 in Calm     88% 0.00 in WeatherDisplay:10.37 W/m2 BKN
08:10 68.9 °F 65.2 °F 30.03 in Calm     88% 0.00 in WeatherDisplay:10.37 W/m2 BKN
08:15 69.3 °F 65.2 °F 30.03 in Calm     87% 0.00 in WeatherDisplay:10.37 W/m2 BKN
08:20 69.6 °F 65.6 °F 30.03 in Calm     87% 0.00 in WeatherDisplay:10.37 W/m2 BKN
08:25 69.9 °F 65.5 °F 30.03 in Calm     86% 0.00 in WeatherDisplay:10.37 W/m2 BKN
08:30 70.3 °F 65.9 °F 30.04 in Calm     86% 0.00 in WeatherDisplay:10.37 W/m2 BKN
08:40 71.0 °F 66.3 °F 30.04 in Calm     85% 0.00 in WeatherDisplay:10.37 W/m2 BKN
08:45 71.4 °F 66.3 °F 30.04 in Calm     84% 0.00 in WeatherDisplay:10.37 W/m2 BKN
08:50 71.6 °F 66.2 °F 30.05 in Calm   1.0 mph 83% 0.00 in WeatherDisplay:10.37 W/m2 BKN
08:55 71.9 °F 66.4 °F 30.05 in Calm     83% 0.00 in WeatherDisplay:10.37 W/m2 BKN
09:00 72.1 °F 66.6 °F 30.05 in Calm     83% 0.00 in WeatherDisplay:10.37 W/m2 BKN
09:05 72.2 °F 66.7 °F 30.05 in Calm     83% 0.00 in WeatherDisplay:10.37 W/m2 BKN
09:10 72.4 °F 66.9 °F 30.05 in Calm   1.0 mph 83% 0.00 in WeatherDisplay:10.37 W/m2 BKN
09:15 72.7 °F 67.3 °F 30.05 in Calm   1.0 mph 83% 0.00 in WeatherDisplay:10.37 W/m2 BKN
09:20 73.2 °F 67.3 °F 30.05 in Calm   1.0 mph 82% 0.00 in WeatherDisplay:10.37 W/m2 BKN
09:25 73.6 °F 67.8 °F 30.05 in Calm     82% 0.00 in WeatherDisplay:10.37 W/m2 BKN
09:30 74.1 °F 67.9 °F 30.05 in Calm   1.0 mph 81% 0.00 in WeatherDisplay:10.37 W/m2 BKN
09:35 74.6 °F 68.0 °F 30.05 in Calm   1.0 mph 80% 0.00 in WeatherDisplay:10.37 W/m2 BKN
09:40 75.1 °F 67.8 °F 30.05 in NW 1.0 mph 1.0 mph 78% 0.00 in WeatherDisplay:10.37 W/m2 BKN
09:45 75.5 °F 68.2 °F 30.05 in Calm   3.0 mph 78% 0.00 in WeatherDisplay:10.37 W/m2 BKN
09:50 76.0 °F 67.9 °F 30.05 in Calm   2.0 mph 76% 0.00 in WeatherDisplay:10.37 W/m2 BKN
09:55 76.4 °F 68.3 °F 30.05 in WNW 1.0 mph 2.0 mph 76% 0.00 in WeatherDisplay:10.37 W/m2 BKN
10:00 76.8 °F 67.9 °F 30.05 in Calm   3.0 mph 74% 0.00 in WeatherDisplay:10.37 W/m2 BKN
10:05 77.4 °F 68.4 °F 30.05 in Calm   3.0 mph 74% 0.00 in WeatherDisplay:10.37 W/m2 BKN
10:10 77.9 °F 68.1 °F 30.05 in Calm   2.0 mph 72% 0.00 in WeatherDisplay:10.37 W/m2 BKN
10:15 78.4 °F 68.6 °F 30.06 in Calm   1.0 mph 72% 0.00 in WeatherDisplay:10.37 W/m2 BKN
10:20 78.7 °F 68.5 °F 30.06 in WNW 1.0 mph 1.0 mph 71% 0.00 in WeatherDisplay:10.37 W/m2 BKN
10:25 78.5 °F 67.9 °F 30.06 in WNW 1.0 mph 2.0 mph 70% 0.00 in WeatherDisplay:10.37 W/m2 BKN
10:30 78.4 °F 68.2 °F 30.06 in Calm   3.0 mph 71% 0.00 in WeatherDisplay:10.37 W/m2 BKN
10:35 78.3 °F 68.1 °F 30.06 in Calm   2.0 mph 71% 0.00 in WeatherDisplay:10.37 W/m2 BKN
10:40 78.4 °F 68.2 °F 30.06 in West 1.0 mph 1.0 mph 71% 0.00 in WeatherDisplay:10.37 W/m2 BKN
10:50 78.6 °F 68.0 °F 30.06 in Calm   2.0 mph 70% 0.00 in WeatherDisplay:10.37 W/m2 BKN
11:10 79.1 °F 68.1 °F 30.07 in Calm   2.0 mph 69% 0.00 in WeatherDisplay:10.37 W/m2 BKN
11:15 79.2 °F 68.2 °F 30.07 in WNW 1.0 mph 2.0 mph 69% 0.00 in WeatherDisplay:10.37 W/m2 BKN
11:20 79.6 °F 68.1 °F 30.07 in Calm   2.0 mph 68% 0.00 in WeatherDisplay:10.37 W/m2 BKN
11:25 79.8 °F 68.3 °F 30.07 in WNW 1.0 mph 3.0 mph 68% 0.00 in WeatherDisplay:10.37 W/m2 BKN
11:30 80.0 °F 68.1 °F 30.08 in WNW 1.0 mph 2.0 mph 67% 0.00 in WeatherDisplay:10.37 W/m2 BKN
11:35 80.1 °F 68.6 °F 30.07 in Calm   2.0 mph 68% 0.00 in WeatherDisplay:10.37 W/m2 BKN
11:40 80.4 °F 68.4 °F 30.07 in Calm   2.0 mph 67% 0.00 in WeatherDisplay:10.37 W/m2 BKN
11:45 80.2 °F 67.8 °F 30.07 in Calm   1.0 mph 66% 0.00 in WeatherDisplay:10.37 W/m2 BKN
11:50 80.1 °F 67.7 °F 30.07 in WNW 1.0 mph 2.0 mph 66% 0.00 in WeatherDisplay:10.37 W/m2 BKN
11:55 79.9 °F 68.4 °F 30.07 in Calm   2.0 mph 68% 0.00 in WeatherDisplay:10.37 W/m2 BKN
12:00 80.3 °F 68.7 °F 30.07 in Calm   2.0 mph 68% 0.00 in WeatherDisplay:10.37 W/m2 BKN
12:10 80.8 °F 68.0 °F 30.07 in Calm   2.0 mph 65% 0.00 in WeatherDisplay:10.37 W/m2 BKN
12:15 81.1 °F 68.3 °F 30.07 in Calm   1.0 mph 65% 0.00 in WeatherDisplay:10.37 W/m2 BKN
12:20 81.6 °F 69.1 °F 30.07 in Calm   1.0 mph 66% 0.00 in WeatherDisplay:10.37 W/m2 BKN
12:30 82.4 °F 68.5 °F 30.06 in West 1.0 mph 2.0 mph 63% 0.00 in WeatherDisplay:10.37 W/m2 BKN
12:40 82.5 °F 68.2 °F 30.06 in NW 1.0 mph 2.0 mph 62% 0.00 in WeatherDisplay:10.37 W/m2 BKN
12:50 82.9 °F 69.4 °F 30.07 in NW 1.0 mph 1.0 mph 64% 0.00 in WeatherDisplay:10.37 W/m2 BKN
12:55 83.2 °F 69.3 °F 30.07 in Calm   2.0 mph 63% 0.00 in WeatherDisplay:10.37 W/m2 BKN
13:00 83.0 °F 68.6 °F 30.06 in WNW 1.0 mph 2.0 mph 62% 0.00 in WeatherDisplay:10.37 W/m2 BKN
13:10 82.9 °F 68.5 °F 30.06 in Calm   2.0 mph 62% 0.00 in WeatherDisplay:10.37 W/m2 BKN
13:20 82.6 °F 68.7 °F 30.06 in Calm   1.0 mph 63% 0.00 in WeatherDisplay:10.37 W/m2 BKN
13:25 83.0 °F 69.1 °F 30.06 in West 1.0 mph 2.0 mph 63% 0.00 in WeatherDisplay:10.37 W/m2 BKN
13:30 83.0 °F 69.1 °F 30.06 in ENE 1.0 mph 2.0 mph 63% 0.00 in WeatherDisplay:10.37 W/m2 BKN
13:40 83.3 °F 68.9 °F 30.06 in Calm   1.0 mph 62% 0.00 in WeatherDisplay:10.37 W/m2 BKN
13:45 83.4 °F 68.5 °F 30.07 in Calm   2.0 mph 61% 0.00 in WeatherDisplay:10.37 W/m2 BKN
13:50 83.7 °F 69.3 °F 30.07 in Calm   2.0 mph 62% 0.00 in WeatherDisplay:10.37 W/m2 BKN
13:55 83.8 °F 68.4 °F 30.07 in Calm   2.0 mph 60% 0.00 in WeatherDisplay:10.37 W/m2 BKN
14:00 84.0 °F 69.6 °F 30.07 in Calm   2.0 mph 62% 0.00 in WeatherDisplay:10.37 W/m2 BKN
14:10 84.2 °F 70.2 °F 30.06 in Calm   1.0 mph 63% 0.00 in WeatherDisplay:10.37 W/m2 BKN
14:20 84.7 °F 69.3 °F 30.06 in Calm   2.0 mph 60% 0.00 in WeatherDisplay:10.37 W/m2 BKN
14:25 84.8 °F 69.4 °F 30.06 in Calm   1.0 mph 60% 0.00 in WeatherDisplay:10.37 W/m2 BKN
14:30 84.8 °F 68.3 °F 30.05 in WNW 1.0 mph 2.0 mph 58% 0.00 in WeatherDisplay:10.37 W/m2 BKN
14:35 84.5 °F 68.6 °F 30.05 in Calm   2.0 mph 59% 0.00 in WeatherDisplay:10.37 W/m2 BKN
14:40 84.3 °F 68.4 °F 30.05 in Calm   1.0 mph 59% 0.00 in WeatherDisplay:10.37 W/m2 BKN
14:45 84.3 °F 68.4 °F 30.05 in Calm   2.0 mph 59% 0.00 in WeatherDisplay:10.37 W/m2 BKN
14:50 83.9 °F 69.5 °F 30.05 in Calm   5.0 mph 62% 0.00 in WeatherDisplay:10.37 W/m2 BKN
14:55 83.8 °F 68.4 °F 30.05 in NW 1.0 mph 2.0 mph 60% 0.00 in WeatherDisplay:10.37 W/m2 BKN
15:00 83.5 °F 69.1 °F 30.05 in Calm   1.0 mph 62% 0.00 in WeatherDisplay:10.37 W/m2 BKN
15:05 83.3 °F 68.4 °F 30.05 in Calm   1.0 mph 61% 0.00 in WeatherDisplay:10.37 W/m2 BKN
15:10 83.3 °F 68.0 °F 30.05 in NNW 2.0 mph 3.0 mph 60% 0.00 in WeatherDisplay:10.37 W/m2 BKN
15:15 83.4 °F 68.0 °F 30.05 in Calm   2.0 mph 60% 0.00 in WeatherDisplay:10.37 W/m2 BKN
15:20 83.3 °F 68.4 °F 30.05 in Calm   2.0 mph 61% 0.00 in WeatherDisplay:10.37 W/m2 BKN
15:25 83.2 °F 68.3 °F 30.05 in Calm   2.0 mph 61% 0.00 in WeatherDisplay:10.37 W/m2 BKN
15:30 83.2 °F 68.4 °F 30.05 in Calm   1.0 mph 61% 0.00 in WeatherDisplay:10.37 W/m2 BKN
15:35 83.3 °F 68.0 °F 30.04 in Calm   1.0 mph 60% 0.00 in WeatherDisplay:10.37 W/m2 BKN
15:40 83.4 °F 68.6 °F 30.04 in Calm   1.0 mph 61% 0.00 in WeatherDisplay:10.37 W/m2 BKN
15:45 83.7 °F 68.8 °F 30.04 in Calm   2.0 mph 61% 0.00 in WeatherDisplay:10.37 W/m2 BKN
15:50 84.1 °F 69.2 °F 30.04 in Calm     61% 0.00 in WeatherDisplay:10.37 W/m2 BKN
15:55 84.3 °F 69.4 °F 30.04 in Calm   1.0 mph 61% 0.00 in WeatherDisplay:10.37 W/m2 BKN
16:00 84.2 °F 68.8 °F 30.04 in Calm   2.0 mph 60% 0.00 in WeatherDisplay:10.37 W/m2 BKN
16:10 84.2 °F 68.8 °F 30.04 in Calm   1.0 mph 60% 0.00 in WeatherDisplay:10.37 W/m2 BKN
16:15 84.3 °F 68.4 °F 30.04 in Calm   1.0 mph 59% 0.00 in WeatherDisplay:10.37 W/m2 BKN
16:20 84.3 °F 68.4 °F 30.03 in WNW 1.0 mph 3.0 mph 59% 0.00 in WeatherDisplay:10.37 W/m2 OVC
16:25 84.0 °F 68.2 °F 30.03 in NNW 1.0 mph 2.0 mph 59% 0.00 in WeatherDisplay:10.37 W/m2 OVC
16:30 83.8 °F 67.4 °F 30.04 in Calm   2.0 mph 58% 0.00 in WeatherDisplay:10.37 W/m2 OVC
16:35 83.6 °F 67.7 °F 30.04 in Calm   1.0 mph 59% 0.00 in WeatherDisplay:10.37 W/m2 OVC
16:40 83.3 °F 67.5 °F 30.04 in Calm   1.0 mph 59% 0.00 in WeatherDisplay:10.37 W/m2 OVC
16:45 83.3 °F 68.0 °F 30.04 in Calm   1.0 mph 60% 0.00 in WeatherDisplay:10.37 W/m2 OVC
16:55 83.7 °F 67.8 °F 30.03 in Calm   1.0 mph 59% 0.00 in WeatherDisplay:10.37 W/m2 OVC
17:00 83.7 °F 67.8 °F 30.03 in Calm   1.0 mph 59% 0.00 in WeatherDisplay:10.37 W/m2 OVC
17:05 83.7 °F 67.4 °F 30.03 in Calm   1.0 mph 58% 0.00 in WeatherDisplay:10.37 W/m2 OVC
17:10 83.6 °F 66.8 °F 30.03 in Calm   1.0 mph 57% 0.00 in WeatherDisplay:10.37 W/m2 OVC
17:15 83.8 °F 67.4 °F 30.03 in Calm   1.0 mph 58% 0.00 in WeatherDisplay:10.37 W/m2 OVC
17:20 83.8 °F 67.9 °F 30.03 in Calm   1.0 mph 59% 0.00 in WeatherDisplay:10.37 W/m2 BKN
17:25 83.9 °F 67.0 °F 30.03 in Calm   1.0 mph 57% 0.00 in WeatherDisplay:10.37 W/m2 BKN
17:30 84.0 °F 67.1 °F 30.03 in Calm   1.0 mph 57% 0.00 in WeatherDisplay:10.37 W/m2 BKN
17:35 84.0 °F 67.1 °F 30.03 in Calm   1.0 mph 57% 0.00 in WeatherDisplay:10.37 W/m2 BKN
17:40 83.8 °F 67.4 °F 30.03 in Calm   2.0 mph 58% 0.00 in WeatherDisplay:10.37 W/m2 BKN
17:45 83.8 °F 67.9 °F 30.03 in Calm     59% 0.00 in WeatherDisplay:10.37 W/m2 BKN
17:50 83.8 °F 67.9 °F 30.03 in Calm     59% 0.00 in WeatherDisplay:10.37 W/m2 BKN
17:55 83.7 °F 66.8 °F 30.03 in Calm   1.0 mph 57% 0.00 in WeatherDisplay:10.37 W/m2 BKN
18:00 83.6 °F 67.3 °F 30.03 in Calm   1.0 mph 58% 0.00 in WeatherDisplay:10.37 W/m2 BKN
18:05 83.5 °F 68.2 °F 30.03 in Calm   1.0 mph 60% 0.00 in WeatherDisplay:10.37 W/m2 BKN
18:10 83.3 °F 67.5 °F 30.03 in Calm   1.0 mph 59% 0.00 in WeatherDisplay:10.37 W/m2 BKN
18:15 83.2 °F 67.9 °F 30.03 in Calm     60% 0.00 in WeatherDisplay:10.37 W/m2 BKN
18:20 83.0 °F 67.2 °F 30.03 in Calm   1.0 mph 59% 0.00 in WeatherDisplay:10.37 W/m2 BKN
18:25 82.8 °F 68.0 °F 30.04 in Calm   1.0 mph 61% 0.00 in WeatherDisplay:10.37 W/m2 BKN
18:30 82.6 °F 67.8 °F 30.04 in Calm     61% 0.00 in WeatherDisplay:10.37 W/m2 BKN
18:35 82.4 °F 67.1 °F 30.04 in Calm     60% 0.00 in WeatherDisplay:10.37 W/m2 BKN
18:40 82.2 °F 67.4 °F 30.04 in Calm     61% 0.00 in WeatherDisplay:10.37 W/m2 BKN
18:45 82.0 °F 68.1 °F 30.04 in Calm     63% 0.00 in WeatherDisplay:10.37 W/m2 BKN
18:50 81.7 °F 68.3 °F 30.04 in Calm     64% 0.00 in WeatherDisplay:10.37 W/m2 BKN
18:55 81.5 °F 68.6 °F 30.04 in Calm     65% 0.00 in WeatherDisplay:10.37 W/m2 BKN
19:00 81.4 °F 68.1 °F 30.04 in Calm     64% 0.00 in WeatherDisplay:10.37 W/m2 BKN
19:05 81.2 °F 68.3 °F 30.04 in Calm     65% 0.00 in WeatherDisplay:10.37 W/m2 BKN
19:10 81.0 °F 68.1 °F 30.04 in Calm   1.0 mph 65% 0.00 in WeatherDisplay:10.37 W/m2 BKN
19:15 80.8 °F 67.9 °F 30.04 in Calm     65% 0.00 in WeatherDisplay:10.37 W/m2 BKN
19:20 80.6 °F 68.2 °F 30.04 in Calm     66% 0.00 in WeatherDisplay:10.37 W/m2 BKN
19:25 80.5 °F 68.1 °F 30.05 in Calm     66% 0.00 in WeatherDisplay:10.37 W/m2 BKN
19:30 80.3 °F 67.9 °F 30.05 in Calm   1.0 mph 66% 0.00 in WeatherDisplay:10.37 W/m2 BKN
19:35 80.1 °F 68.2 °F 30.05 in Calm     67% 0.00 in WeatherDisplay:10.37 W/m2 BKN
19:40 79.9 °F 68.0 °F 30.05 in Calm     67% 0.00 in WeatherDisplay:10.37 W/m2 BKN
19:45 79.7 °F 67.8 °F 30.05 in Calm   1.0 mph 67% 0.00 in WeatherDisplay:10.37 W/m2 BKN
19:50 79.4 °F 67.5 °F 30.05 in Calm     67% 0.00 in WeatherDisplay:10.37 W/m2 BKN
19:55 79.2 °F 67.7 °F 30.05 in Calm     68% 0.00 in WeatherDisplay:10.37 W/m2 BKN
20:00 79.0 °F 67.5 °F 30.05 in Calm     68% 0.00 in WeatherDisplay:10.37 W/m2 BKN
20:05 78.8 °F 67.8 °F 30.05 in Calm     69% 0.00 in WeatherDisplay:10.37 W/m2 BKN
20:10 78.5 °F 67.5 °F 30.06 in Calm     69% 0.00 in WeatherDisplay:10.37 W/m2 BKN
20:15 78.3 °F 67.7 °F 30.06 in Calm     70% 0.00 in WeatherDisplay:10.37 W/m2 BKN
20:20 78.1 °F 67.9 °F 30.05 in Calm     71% 0.00 in WeatherDisplay:10.37 W/m2 BKN
20:25 77.8 °F 67.6 °F 30.05 in Calm   1.0 mph 71% 0.00 in WeatherDisplay:10.37 W/m2 BKN
20:30 77.5 °F 67.4 °F 30.05 in Calm     71% 0.00 in WeatherDisplay:10.37 W/m2 BKN
20:35 77.4 °F 67.6 °F 30.05 in Calm     72% 0.00 in WeatherDisplay:10.37 W/m2 BKN
20:40 77.2 °F 67.5 °F 30.06 in Calm     72% 0.00 in WeatherDisplay:10.37 W/m2 BKN
20:45 77.1 °F 67.8 °F 30.05 in Calm     73% 0.00 in WeatherDisplay:10.37 W/m2 BKN
20:50 77.0 °F 67.7 °F 30.05 in Calm     73% 0.00 in WeatherDisplay:10.37 W/m2 BKN
20:55 76.8 °F 67.5 °F 30.05 in Calm     73% 0.00 in WeatherDisplay:10.37 W/m2 BKN
21:00 76.6 °F 67.3 °F 30.05 in Calm     73% 0.00 in WeatherDisplay:10.37 W/m2 BKN
21:10 76.3 °F 67.4 °F 30.06 in Calm   1.0 mph 74% 0.00 in WeatherDisplay:10.37 W/m2 BKN
21:15 76.1 °F 67.2 °F 30.05 in Calm     74% 0.00 in WeatherDisplay:10.37 W/m2 BKN
21:20 76.0 °F 67.5 °F 30.05 in Calm     75% 0.00 in WeatherDisplay:10.37 W/m2 BKN
21:25 75.9 °F 67.4 °F 30.06 in Calm     75% 0.00 in WeatherDisplay:10.37 W/m2 BKN
21:30 75.8 °F 67.3 °F 30.06 in Calm     75% 0.00 in WeatherDisplay:10.37 W/m2 BKN
21:35 75.7 °F 67.2 °F 30.06 in Calm     75% 0.00 in WeatherDisplay:10.37 W/m2 BKN
21:40 75.7 °F 67.6 °F 30.06 in Calm     76% 0.00 in WeatherDisplay:10.37 W/m2 BKN
21:45 75.5 °F 67.4 °F 30.07 in Calm     76% 0.00 in WeatherDisplay:10.37 W/m2 BKN
21:50 75.4 °F 67.3 °F 30.07 in Calm     76% 0.00 in WeatherDisplay:10.37 W/m2 BKN
21:55 75.3 °F 67.6 °F 30.07 in Calm     77% 0.00 in WeatherDisplay:10.37 W/m2 BKN
22:00 75.3 °F 67.6 °F 30.07 in Calm     77% 0.00 in WeatherDisplay:10.37 W/m2 BKN
22:10 75.1 °F 67.4 °F 30.08 in Calm     77% 0.00 in WeatherDisplay:10.37 W/m2 BKN
22:15 74.9 °F 67.6 °F 30.08 in Calm     78% 0.00 in WeatherDisplay:10.37 W/m2 BKN
22:20 74.8 °F 67.5 °F 30.08 in Calm     78% 0.00 in WeatherDisplay:10.37 W/m2 BKN
22:25 74.7 °F 67.4 °F 30.08 in Calm     78% 0.00 in WeatherDisplay:10.37 W/m2 BKN
22:30 74.6 °F 67.3 °F 30.08 in Calm     78% 0.00 in WeatherDisplay:10.37 W/m2 BKN
22:40 74.5 °F 67.6 °F 30.09 in Calm     79% 0.00 in WeatherDisplay:10.37 W/m2 BKN
22:45 74.5 °F 67.6 °F 30.09 in Calm     79% 0.00 in WeatherDisplay:10.37 W/m2 BKN
22:50 74.4 °F 67.5 °F 30.09 in Calm     79% 0.00 in WeatherDisplay:10.37 W/m2 BKN
22:55 74.3 °F 67.4 °F 30.09 in Calm     79% 0.00 in WeatherDisplay:10.37 W/m2 BKN
23:00 74.2 °F 67.3 °F 30.09 in Calm     79% 0.00 in WeatherDisplay:10.37 W/m2 BKN
23:05 74.0 °F 67.5 °F 30.09 in Calm     80% 0.00 in WeatherDisplay:10.37 W/m2 BKN
23:10 73.9 °F 67.3 °F 30.09 in Calm     80% 0.00 in WeatherDisplay:10.37 W/m2 BKN
23:25 73.6 °F 67.4 °F 30.09 in Calm     81% 0.00 in WeatherDisplay:10.37 W/m2 BKN
23:30 73.5 °F 67.3 °F 30.09 in Calm     81% 0.00 in WeatherDisplay:10.37 W/m2 BKN
23:35 73.5 °F 67.6 °F 30.09 in Calm   1.0 mph 82% 0.00 in WeatherDisplay:10.37 W/m2 BKN
23:40 73.3 °F 67.5 °F 30.09 in Calm     82% 0.00 in WeatherDisplay:10.37 W/m2 BKN
23:50 73.1 °F 67.6 °F 30.10 in Calm     83% 0.00 in WeatherDisplay:10.37 W/m2 BKN
23:55 73.1 °F 67.6 °F 30.10 in Calm     83% 0.00 in WeatherDisplay:10.37 W/m2 BKN
Piedmont Bend
Compliments of Weather Underground - 4 mb